Time;durP1;ratioP1;P1;durP2;ratioP2;P2;SDS_P1;SDS_P2;PMS_P1;PMS_P2;Temp;Humidity;BMP_temperature;BMP_pressure;BME280_temperature;BME280_humidity;BME280_pressure;Samples;Min_cycle;Max_cycle;Signal;HPM_P1;HPM_P2
2022/04/08 00:00:34;;;;;;;5.00;0.90;;;11.40;76.10;;;;;;6219271;28;20046;-81
2022/04/08 00:03:36;;;;;;;3.17;0.60;;;11.40;76.30;;;;;;6218440;28;20078;-82
2022/04/08 00:06:38;;;;;;;3.72;0.57;;;11.40;76.90;;;;;;6211693;28;20052;-81
2022/04/08 00:09:39;;;;;;;3.78;0.60;;;11.40;77.70;;;;;;6205000;28;20052;-81
2022/04/08 00:12:41;;;;;;;4.53;0.68;;;11.50;76.80;;;;;;6205008;28;20409;-81
2022/04/08 00:15:45;;;;;;;5.03;0.70;;;11.50;76.90;;;;;;6204036;28;20416;-81
2022/04/08 00:18:47;;;;;;;5.68;0.85;;;11.40;77.30;;;;;;6203964;28;20133;-81
2022/04/08 00:21:49;;;;;;;6.63;0.85;;;11.40;78.00;;;;;;6204062;28;20057;-82
2022/04/08 00:24:51;;;;;;;2.85;0.73;;;11.30;78.20;;;;;;6203337;28;20049;-81
2022/04/08 00:27:53;;;;;;;8.63;1.05;;;11.20;78.60;;;;;;6201745;28;20117;-81
2022/04/08 00:30:57;;;;;;;4.18;0.80;;;11.20;78.90;;;;;;6203658;28;20050;-81
2022/04/08 00:33:58;;;;;;;9.52;1.02;;;11.20;78.60;;;;;;6203493;28;20097;-81
2022/04/08 00:37:00;;;;;;;4.32;0.75;;;11.10;77.80;;;;;;6202485;28;20042;-80
2022/04/08 00:40:02;;;;;;;3.75;0.63;;;11.10;77.50;;;;;;6202114;28;20057;-81
2022/04/08 00:43:14;;;;;;;2.85;0.60;;;11.10;78.10;;;;;;6203179;28;20057;-81
2022/04/08 00:46:17;;;;;;;7.13;1.52;;;11.20;78.30;;;;;;6202004;28;20415;-80
2022/04/08 00:49:19;;;;;;;3.85;0.60;;;11.20;78.40;;;;;;6203664;28;20047;-81
2022/04/08 00:52:20;;;;;;;6.57;0.57;;;11.30;78.70;;;;;;6203392;28;20060;-81
2022/04/08 00:55:22;;;;;;;8.85;2.35;;;11.30;79.60;;;;;;6202965;28;20050;-80
2022/04/08 00:58:24;;;;;;;5.03;0.80;;;11.40;79.20;;;;;;6201779;28;20046;-81
2022/04/08 01:01:28;;;;;;;7.53;1.10;;;11.50;79.70;;;;;;6201232;28;20050;-80
2022/04/08 01:04:30;;;;;;;12.35;1.27;;;11.50;78.70;;;;;;6202974;28;20064;-81
2022/04/08 01:07:32;;;;;;;2.58;0.50;;;11.50;79.40;;;;;;6203449;28;20190;-80
2022/04/08 01:10:34;;;;;;;7.55;0.77;;;11.50;79.10;;;;;;6203692;28;20050;-81
2022/04/08 01:13:35;;;;;;;7.30;0.93;;;11.50;79.20;;;;;;6202411;28;20065;-81
2022/04/08 01:16:39;;;;;;;5.50;0.55;;;11.50;77.20;;;;;;6201137;28;20412;-82
2022/04/08 01:19:41;;;;;;;3.40;0.55;;;11.40;77.10;;;;;;6202477;28;20098;-82
2022/04/08 01:22:43;;;;;;;7.15;1.08;;;11.40;77.30;;;;;;6201003;28;20058;-81
2022/04/08 01:25:46;;;;;;;4.57;0.60;;;11.40;77.90;;;;;;6201037;28;20046;-81
2022/04/08 01:28:48;;;;;;;5.15;0.93;;;11.40;77.40;;;;;;6200533;28;20149;-81
2022/04/08 01:31:50;;;;;;;3.13;0.50;;;11.40;77.30;;;;;;6201078;28;20193;-81
2022/04/08 01:34:53;;;;;;;9.40;1.15;;;11.40;77.80;;;;;;6200419;28;20050;-81
2022/04/08 01:37:55;;;;;;;2.53;0.75;;;11.40;77.70;;;;;;6200570;28;20050;-80
2022/04/08 01:40:58;;;;;;;1.70;0.57;;;11.40;77.90;;;;;;6200360;28;20064;-81
2022/04/08 01:44:00;;;;;;;7.05;1.42;;;11.30;77.80;;;;;;6201017;28;20047;-81
2022/04/08 01:47:02;;;;;;;6.10;0.93;;;11.30;78.40;;;;;;6200426;28;20051;-81
2022/04/08 01:50:04;;;;;;;10.90;0.68;;;11.20;77.40;;;;;;6204217;28;20083;-82
2022/04/08 01:53:06;;;;;;;4.57;0.65;;;11.20;77.70;;;;;;6203508;28;20081;-82
2022/04/08 01:56:09;;;;;;;5.97;1.23;;;11.20;78.30;;;;;;6200121;28;20050;-82
2022/04/08 01:59:11;;;;;;;7.80;0.43;;;11.10;78.50;;;;;;6203570;28;20053;-82
2022/04/08 02:02:13;;;;;;;2.55;0.50;;;11.20;79.40;;;;;;6204276;28;20047;-81
2022/04/08 02:05:15;;;;;;;6.03;0.43;;;11.10;78.50;;;;;;6203604;28;20176;-81
2022/04/08 02:08:17;;;;;;;5.32;1.50;;;11.10;79.00;;;;;;6203896;28;20430;-82
2022/04/08 02:11:20;;;;;;;2.97;0.73;;;11.00;78.90;;;;;;6203834;28;20053;-82
2022/04/08 02:14:22;;;;;;;11.65;1.70;;;11.00;79.20;;;;;;6204143;28;20046;-82
2022/04/08 02:17:25;;;;;;;5.60;0.90;;;11.00;79.30;;;;;;6204371;28;20046;-82
2022/04/08 02:20:27;;;;;;;3.38;0.80;;;10.90;79.60;;;;;;6203947;28;20046;-82
2022/04/08 02:23:29;;;;;;;4.57;0.82;;;10.90;79.00;;;;;;6205020;28;20133;-82
2022/04/08 02:26:32;;;;;;;2.78;0.57;;;10.90;78.80;;;;;;6204991;28;20066;-82
2022/04/08 02:29:34;;;;;;;5.53;1.15;;;10.80;78.40;;;;;;6208356;28;20053;-82
2022/04/08 02:32:35;;;;;;;8.35;1.17;;;10.80;78.40;;;;;;6206484;28;20105;-80
2022/04/08 02:35:37;;;;;;;5.43;0.93;;;10.70;78.30;;;;;;6205602;28;20515;-82
2022/04/08 02:38:39;;;;;;;2.50;1.60;;;10.80;78.40;;;;;;6204666;28;20050;-82
2022/04/08 02:41:42;;;;;;;4.63;0.70;;;10.90;78.40;;;;;;6204939;28;20070;-80
2022/04/08 02:44:44;;;;;;;7.00;1.00;;;10.90;78.30;;;;;;6205152;28;20053;-80
2022/04/08 02:47:47;;;;;;;4.72;0.95;;;10.90;78.50;;;;;;6205828;28;20166;-80
2022/04/08 02:50:49;;;;;;;3.47;0.85;;;11.00;78.30;;;;;;6204371;28;20052;-79
2022/04/08 02:53:50;;;;;;;4.85;0.55;;;11.00;78.00;;;;;;6203779;28;20053;-79
2022/04/08 02:56:54;;;;;;;3.83;0.82;;;10.90;77.40;;;;;;6203869;28;20393;-79
2022/04/08 02:59:55;;;;;;;2.67;0.63;;;10.80;77.60;;;;;;6206512;28;20534;-81
2022/04/08 03:02:57;;;;;;;2.15;0.57;;;10.80;77.00;;;;;;6206429;28;20053;-81
2022/04/08 03:05:59;;;;;;;6.70;0.60;;;10.80;77.50;;;;;;6206917;28;20054;-81
2022/04/08 03:09:02;;;;;;;14.65;2.25;;;10.80;77.40;;;;;;6205970;28;20054;-81
2022/04/08 03:12:06;;;;;;;7.00;0.63;;;10.70;77.30;;;;;;6220299;28;20054;-81
2022/04/08 03:15:08;;;;;;;4.97;1.45;;;10.70;77.00;;;;;;6219231;28;20141;-81
2022/04/08 03:18:10;;;;;;;14.10;1.98;;;10.70;76.80;;;;;;6228369;28;20132;-81
2022/04/08 03:21:12;;;;;;;6.35;1.58;;;10.70;76.60;;;;;;6229724;28;20546;-81
2022/04/08 03:24:14;;;;;;;10.68;0.77;;;10.70;76.30;;;;;;6231096;28;20053;-81
2022/04/08 03:27:18;;;;;;;6.72;1.13;;;10.70;76.20;;;;;;6234147;28;20050;-81
2022/04/08 03:30:20;;;;;;;3.78;0.50;;;10.70;75.80;;;;;;6244322;28;20046;-80
2022/04/08 03:33:21;;;;;;;5.07;1.05;;;10.70;76.10;;;;;;6234841;28;20181;-81
2022/04/08 03:36:23;;;;;;;6.32;2.67;;;10.70;76.00;;;;;;6230174;28;20124;-80
2022/04/08 03:39:25;;;;;;;7.90;0.80;;;10.80;75.80;;;;;;6228799;28;20415;-81
2022/04/08 03:42:28;;;;;;;7.07;0.75;;;10.80;75.50;;;;;;6229157;28;20096;-81
2022/04/08 03:45:30;;;;;;;6.60;1.83;;;10.70;75.50;;;;;;6228775;28;20052;-81
2022/04/08 03:48:32;;;;;;;7.70;1.70;;;10.70;75.40;;;;;;6228635;28;20073;-80
2022/04/08 03:51:34;;;;;;;5.00;0.80;;;10.70;75.30;;;;;;6229287;28;20135;-81
2022/04/08 03:54:35;;;;;;;3.47;0.47;;;10.70;75.40;;;;;;6228677;28;20046;-81
2022/04/08 03:57:39;;;;;;;2.85;0.57;;;10.80;75.40;;;;;;6228682;28;20045;-81
2022/04/08 04:00:41;;;;;;;7.88;0.95;;;10.80;75.10;;;;;;6228352;28;20045;-81
2022/04/08 04:03:42;;;;;;;4.20;0.90;;;10.80;75.40;;;;;;6210637;23;20053;-77
2022/04/08 04:06:44;;;;;;;5.88;1.05;;;10.80;75.20;;;;;;6176824;28;20053;-78
2022/04/08 04:09:47;;;;;;;3.63;0.52;;;10.90;75.50;;;;;;6175820;28;20047;-78
2022/04/08 04:12:50;;;;;;;9.15;1.48;;;10.80;75.20;;;;;;6180072;28;20042;-78
2022/04/08 04:15:52;;;;;;;4.72;1.10;;;10.80;75.50;;;;;;6201788;28;20057;-80
2022/04/08 04:18:53;;;;;;;4.25;0.98;;;10.80;75.50;;;;;;6201162;28;20514;-78
2022/04/08 04:21:55;;;;;;;4.00;0.60;;;10.80;75.30;;;;;;6206013;28;20043;-78
2022/04/08 04:24:57;;;;;;;10.70;1.23;;;11.00;75.30;;;;;;6205687;28;20054;-82
2022/04/08 04:28:01;;;;;;;4.47;1.13;;;10.90;75.00;;;;;;6206589;28;20190;-82
2022/04/08 04:31:04;;;;;;;2.50;0.73;;;10.90;75.00;;;;;;6205532;28;20042;-79
2022/04/08 04:34:06;;;;;;;5.93;1.00;;;10.80;75.50;;;;;;6206522;28;20054;-80
2022/04/08 04:37:09;;;;;;;4.53;1.27;;;10.80;75.80;;;;;;6212080;28;20242;-77
2022/04/08 04:40:12;;;;;;;4.95;0.52;;;10.80;75.80;;;;;;6212257;28;20050;-77
2022/04/08 04:43:15;;;;;;;5.68;0.57;;;10.80;75.70;;;;;;6213075;28;20357;-81
2022/04/08 04:46:17;;;;;;;3.80;0.55;;;10.80;75.80;;;;;;6213713;28;20052;-77
2022/04/08 04:49:19;;;;;;;3.17;0.57;;;10.70;75.80;;;;;;6213184;28;20132;-77
2022/04/08 04:52:21;;;;;;;7.10;1.02;;;10.70;76.10;;;;;;6207734;28;20097;-79
2022/04/08 04:55:23;;;;;;;3.47;0.43;;;10.70;76.30;;;;;;6204007;28;20519;-79
2022/04/08 04:58:26;;;;;;;6.72;0.68;;;10.70;76.40;;;;;;6204507;28;20129;-81
2022/04/08 05:01:28;;;;;;;6.57;1.60;;;10.70;76.70;;;;;;6204457;28;20042;-79
2022/04/08 05:04:30;;;;;;;4.10;0.90;;;10.70;76.70;;;;;;6205282;28;20148;-79
2022/04/08 05:07:31;;;;;;;17.40;1.20;;;10.70;76.80;;;;;;6204842;28;20503;-79
2022/04/08 05:10:34;;;;;;;6.88;0.90;;;10.70;76.70;;;;;;6203859;28;20046;-79
2022/04/08 05:13:37;;;;;;;8.13;0.95;;;10.80;77.10;;;;;;6204826;28;20050;-79
2022/04/08 05:16:39;;;;;;;7.68;1.02;;;10.80;77.20;;;;;;6205177;28;20419;-79
2022/04/08 05:19:41;;;;;;;3.42;0.55;;;10.80;77.30;;;;;;6204688;28;20098;-79
2022/04/08 05:22:42;;;;;;;6.22;1.23;;;10.70;77.60;;;;;;6204616;28;20133;-79
2022/04/08 05:25:44;;;;;;;5.30;1.58;;;10.80;77.80;;;;;;6205249;28;20061;-77
2022/04/08 05:28:47;;;;;;;4.55;1.38;;;10.90;78.10;;;;;;6206964;28;20125;-79
2022/04/08 05:31:49;;;;;;;3.65;1.17;;;10.90;78.00;;;;;;6207429;28;20066;-79
2022/04/08 05:34:51;;;;;;;3.22;0.40;;;10.80;78.00;;;;;;6208547;28;20046;-78
2022/04/08 05:37:53;;;;;;;5.30;0.70;;;10.80;78.00;;;;;;6206371;28;20053;-78
2022/04/08 05:40:54;;;;;;;4.22;0.45;;;10.80;77.80;;;;;;6207822;28;20112;-79
2022/04/08 05:43:58;;;;;;;13.75;1.40;;;10.80;77.80;;;;;;6207143;28;20054;-79
2022/04/08 05:46:59;;;;;;;9.05;1.85;;;10.80;77.60;;;;;;6206602;28;20120;-79
2022/04/08 05:50:02;;;;;;;4.50;1.38;;;10.80;77.80;;;;;;6208078;28;20583;-78
2022/04/08 05:53:04;;;;;;;4.25;1.30;;;10.90;78.30;;;;;;6207547;28;20453;-77
2022/04/08 05:56:06;;;;;;;4.40;0.80;;;10.90;78.20;;;;;;6207740;28;20053;-79
2022/04/08 05:59:09;;;;;;;2.78;0.70;;;11.00;77.80;;;;;;6206633;28;20110;-77
2022/04/08 06:02:11;;;;;;;5.97;0.80;;;11.00;76.60;;;;;;6204963;28;20117;-79
2022/04/08 06:05:15;;;;;;;6.03;1.50;;;11.00;76.30;;;;;;6202944;28;20091;-80
2022/04/08 06:08:17;;;;;;;2.80;0.63;;;11.00;75.70;;;;;;6203110;28;20046;-79
2022/04/08 06:11:18;;;;;;;4.93;0.77;;;11.00;74.80;;;;;;6202185;28;20463;-80
2022/04/08 06:14:22;;;;;;;2.33;0.60;;;11.00;74.50;;;;;;6202453;28;20133;-79
2022/04/08 06:17:24;;;;;;;10.10;1.15;;;11.00;74.10;;;;;;6203268;28;20100;-79
2022/04/08 06:20:26;;;;;;;6.35;1.02;;;11.10;74.30;;;;;;6203417;28;20411;-79
2022/04/08 06:23:27;;;;;;;3.67;0.57;;;11.20;74.30;;;;;;6203866;28;20129;-80
2022/04/08 06:26:29;;;;;;;8.48;0.93;;;11.30;74.50;;;;;;6202852;28;20070;-80
2022/04/08 06:29:33;;;;;;;8.85;0.93;;;11.30;74.30;;;;;;6203470;28;20056;-79
2022/04/08 06:32:35;;;;;;;4.13;0.60;;;11.30;74.30;;;;;;6202706;28;20081;-78
2022/04/08 06:35:37;;;;;;;1.08;0.38;;;11.10;74.10;;;;;;6204239;28;20058;-80
2022/04/08 06:38:38;;;;;;;2.35;0.50;;;11.10;74.30;;;;;;6203961;28;20503;-80
2022/04/08 06:41:40;;;;;;;3.88;0.40;;;11.00;74.60;;;;;;6204521;28;20129;-80
2022/04/08 06:44:43;;;;;;;5.15;1.17;;;11.00;74.70;;;;;;6206973;28;20050;-79
2022/04/08 06:47:46;;;;;;;2.10;0.77;;;11.00;74.90;;;;;;6209548;28;20074;-78
2022/04/08 06:50:48;;;;;;;0.40;0.20;;;10.90;75.30;;;;;;6209686;28;20138;-79
2022/04/08 06:53:50;;;;;;;2.40;0.45;;;10.90;75.80;;;;;;6210603;28;20042;-79
2022/04/08 06:56:52;;;;;;;6.82;0.60;;;10.90;76.40;;;;;;6208217;28;20053;-78
2022/04/08 06:59:55;;;;;;;2.75;0.55;;;10.90;77.80;;;;;;6209096;28;20558;-80
2022/04/08 07:02:56;;;;;;;3.92;0.52;;;10.80;78.50;;;;;;6208806;28;20057;-79
2022/04/08 07:05:58;;;;;;;0.55;0.32;;;10.60;79.70;;;;;;6207928;28;20078;-80
2022/04/08 07:09:00;;;;;;;1.73;0.28;;;10.50;80.60;;;;;;6207252;28;20046;-79
2022/04/08 07:12:02;;;;;;;2.80;0.40;;;10.40;81.00;;;;;;6208500;28;20129;-80
2022/04/08 07:15:07;;;;;;;3.40;0.55;;;10.40;81.70;;;;;;6207520;28;20053;-80
2022/04/08 07:18:09;;;;;;;1.67;0.38;;;10.40;82.70;;;;;;6206893;28;20144;-80
2022/04/08 07:21:11;;;;;;;5.53;0.65;;;10.40;83.00;;;;;;6207515;28;20130;-80
2022/04/08 07:24:13;;;;;;;2.20;0.38;;;10.40;84.20;;;;;;6208173;28;20159;-80
2022/04/08 07:27:15;;;;;;;1.25;0.30;;;10.30;84.80;;;;;;6209712;28;20052;-76
2022/04/08 07:30:22;;;;;;;1.98;0.75;;;10.00;86.10;;;;;;6209168;28;20050;-79
2022/04/08 07:33:26;;;;;;;2.95;0.40;;;9.80;87.50;;;;;;6208344;28;20106;-80
2022/04/08 07:36:28;;;;;;;1.88;0.40;;;9.80;89.20;;;;;;6208297;28;20054;-81
2022/04/08 07:39:30;;;;;;;2.22;0.30;;;9.70;90.30;;;;;;6207170;28;20113;-79
2022/04/08 07:42:32;;;;;;;6.25;0.82;;;9.70;90.80;;;;;;6207521;28;20101;-81
2022/04/08 07:45:35;;;;;;;4.50;0.57;;;9.70;91.20;;;;;;6207301;28;20050;-79
2022/04/08 07:48:37;;;;;;;2.42;0.60;;;9.60;91.80;;;;;;6207269;28;20047;-81
2022/04/08 07:51:38;;;;;;;3.67;0.90;;;9.60;92.30;;;;;;6208907;28;20431;-82
2022/04/08 07:54:40;;;;;;;2.13;0.60;;;9.50;92.40;;;;;;6209461;28;20053;-81
2022/04/08 07:57:46;;;;;;;4.35;0.93;;;9.50;92.70;;;;;;6207447;28;20054;-78
2022/04/08 08:00:51;;;;;;;3.78;0.88;;;9.50;93.10;;;;;;6208164;28;20054;-81
2022/04/08 08:03:53;;;;;;;9.18;1.50;;;9.50;93.40;;;;;;6208319;28;20046;-80
2022/04/08 08:06:54;;;;;;;6.45;0.85;;;9.40;93.70;;;;;;6210459;28;20098;-79
2022/04/08 08:09:56;;;;;;;4.75;0.70;;;9.50;93.90;;;;;;6207223;28;20137;-81
2022/04/08 08:13:01;;;;;;;1.65;0.77;;;9.50;94.20;;;;;;6207136;28;20478;-81
2022/04/08 08:16:04;;;;;;;3.83;0.70;;;9.60;94.50;;;;;;6208109;28;20058;-82
2022/04/08 08:19:06;;;;;;;6.15;1.10;;;9.60;94.40;;;;;;6208393;28;20053;-81
2022/04/08 08:22:08;;;;;;;9.40;1.13;;;9.70;95.10;;;;;;6208040;28;20053;-80
2022/04/08 08:25:11;;;;;;;6.75;1.00;;;9.70;95.40;;;;;;6209567;28;20074;-80
2022/04/08 08:28:14;;;;;;;10.77;1.98;;;9.80;95.20;;;;;;6180267;28;20058;-80
2022/04/08 08:31:17;;;;;;;3.42;0.70;;;9.90;95.20;;;;;;6204646;28;20522;-80
2022/04/08 08:34:19;;;;;;;1.02;0.40;;;10.00;95.20;;;;;;6213433;28;20107;-81
2022/04/08 08:37:20;;;;;;;6.30;0.93;;;10.10;95.00;;;;;;6216281;28;20056;-80
2022/04/08 08:40:23;;;;;;;3.45;1.05;;;10.10;94.80;;;;;;6204487;28;20678;-81
2022/04/08 08:43:25;;;;;;;2.72;0.50;;;10.00;94.70;;;;;;6207712;28;20054;-83
2022/04/08 08:46:34;;;;;;;4.72;0.63;;;10.10;95.20;;;;;;6205807;28;20053;-79
2022/04/08 08:49:36;;;;;;;2.63;0.80;;;10.10;95.00;;;;;;6204591;28;20047;-79
2022/04/08 08:52:38;;;;;;;3.97;0.60;;;10.10;94.90;;;;;;6203775;28;20053;-81
2022/04/08 08:55:42;;;;;;;2.65;0.80;;;10.20;95.00;;;;;;6204667;28;20105;-81
2022/04/08 08:58:43;;;;;;;7.63;0.68;;;10.30;94.90;;;;;;6203139;28;20055;-79
2022/04/08 09:01:48;;;;;;;2.77;0.60;;;10.30;94.90;;;;;;6205715;28;20128;-78
2022/04/08 09:04:50;;;;;;;1.50;0.45;;;10.20;95.00;;;;;;6207802;28;20295;-79
2022/04/08 09:07:56;;;;;;;2.35;0.65;;;10.10;94.90;;;;;;6202513;28;20054;-79
2022/04/08 09:10:58;;;;;;;2.65;0.38;;;10.10;95.30;;;;;;6202798;28;20053;-79
2022/04/08 09:14:02;;;;;;;1.67;0.60;;;10.00;95.20;;;;;;6202533;28;20046;-80
2022/04/08 09:17:06;;;;;;;8.43;0.73;;;10.00;95.40;;;;;;6202797;28;20042;-80
2022/04/08 09:20:10;;;;;;;6.43;0.68;;;9.90;95.20;;;;;;6202925;28;20054;-80
2022/04/08 09:23:13;;;;;;;1.90;0.60;;;9.90;95.10;;;;;;6202200;28;20049;-80
2022/04/08 09:26:15;;;;;;;2.10;1.00;;;10.00;95.40;;;;;;6202182;28;20054;-78
2022/04/08 09:29:19;;;;;;;6.85;0.85;;;10.10;95.30;;;;;;6201707;28;20267;-79
2022/04/08 09:32:24;;;;;;;8.15;0.95;;;10.30;95.30;;;;;;6210404;28;20049;-78
2022/04/08 09:35:26;;;;;;;5.60;1.08;;;10.10;95.40;;;;;;6211362;28;20681;-78
2022/04/08 09:38:30;;;;;;;4.72;0.80;;;10.10;95.50;;;;;;6226711;28;20074;-79
2022/04/08 09:41:39;;;;;;;3.50;0.40;;;10.20;96.00;;;;;;6226969;28;20050;-77
2022/04/08 09:44:42;;;;;;;2.60;0.40;;;10.20;95.70;;;;;;6227007;28;20480;-77
2022/04/08 09:47:45;;;;;;;1.75;0.52;;;10.10;96.40;;;;;;6228351;28;20053;-78
2022/04/08 09:50:51;;;;;;;3.85;0.50;;;10.00;96.60;;;;;;6227023;28;20046;-78
2022/04/08 09:53:56;;;;;;;2.40;0.50;;;10.00;96.60;;;;;;6229466;28;20057;-78
2022/04/08 09:56:59;;;;;;;1.35;0.28;;;9.90;96.70;;;;;;6228061;28;20061;-78
2022/04/08 10:00:02;;;;;;;2.22;0.35;;;10.00;97.10;;;;;;6231788;28;20046;-76
2022/04/08 10:03:05;;;;;;;4.18;0.40;;;10.00;96.90;;;;;;6225366;28;20096;-77
2022/04/08 10:06:09;;;;;;;1.67;0.50;;;10.10;97.30;;;;;;6203857;28;20042;-78
2022/04/08 10:09:13;;;;;;;3.08;0.70;;;10.00;97.30;;;;;;6199122;28;20192;-79
2022/04/08 10:12:25;;;;;;;1.15;0.38;;;9.80;97.70;;;;;;6201738;28;20061;-79
2022/04/08 10:15:32;;;;;;;2.13;0.30;;;9.60;98.40;;;;;;6201251;28;20480;-79
2022/04/08 10:18:37;;;;;;;0.77;0.30;;;9.50;98.80;;;;;;6202337;28;20568;-79
2022/04/08 10:21:40;;;;;;;4.07;0.60;;;9.50;99.10;;;;;;6206245;28;20057;-80
2022/04/08 10:24:59;;;;;;;3.65;0.80;;;9.60;99.90;;;;;;6205714;28;20057;-80
2022/04/08 10:28:01;;;;;;;4.55;0.80;;;9.60;99.80;;;;;;6207800;28;20050;-80
2022/04/08 10:34:41;;;;;;;2.40;0.90;;;9.50;99.20;;;;;;6223605;23;20065;-80
2022/04/08 10:37:43;;;;;;;3.47;0.60;;;9.50;99.50;;;;;;6206287;28;20521;-79
2022/04/08 10:40:55;;;;;;;2.90;0.60;;;9.60;99.80;;;;;;6204881;28;20085;-79
2022/04/08 10:44:13;;;;;;;2.83;1.00;;;9.60;99.40;;;;;;6233165;28;20113;-80
2022/04/08 10:47:16;;;;;;;4.93;0.70;;;9.50;99.20;;;;;;6230207;28;20456;-79
2022/04/08 10:50:27;;;;;;;2.38;0.88;;;9.40;99.20;;;;;;6231573;28;20053;-81
2022/04/08 10:53:33;;;;;;;2.15;0.73;;;9.40;99.50;;;;;;6230465;28;20053;-80
2022/04/08 10:56:35;;;;;;;4.65;0.75;;;9.40;99.40;;;;;;6230526;28;20050;-80
2022/04/08 10:59:37;;;;;;;7.85;0.80;;;9.60;99.70;;;;;;6230907;28;20054;-80
2022/04/08 11:02:40;;;;;;;2.70;0.70;;;9.60;99.40;;;;;;6221338;28;20078;-80
2022/04/08 11:05:45;;;;;;;1.63;0.38;;;9.70;99.40;;;;;;6204835;28;20046;-81
2022/04/08 11:08:47;;;;;;;4.47;0.80;;;9.70;98.90;;;;;;6181000;28;20056;-80
2022/04/08 11:11:53;;;;;;;2.65;0.40;;;9.50;99.90;;;;;;6182169;28;20047;-81
2022/04/08 11:14:57;;;;;;;8.05;0.93;;;9.40;99.90;;;;;;6180958;28;20042;-80
2022/04/08 11:18:00;;;;;;;3.88;0.47;;;9.50;99.90;;;;;;6181098;28;20056;-80
2022/04/08 11:21:04;;;;;;;1.95;0.57;;;9.50;99.90;;;;;;6181787;28;20069;-80
2022/04/08 11:24:08;;;;;;;4.93;0.82;;;9.50;99.90;;;;;;6182376;28;20493;-80
2022/04/08 11:27:11;;;;;;;3.05;0.68;;;9.60;99.90;;;;;;6182968;28;20050;-80
2022/04/08 11:30:15;;;;;;;3.72;0.60;;;9.60;99.90;;;;;;6181668;28;20103;-81
2022/04/08 11:33:19;;;;;;;2.10;0.22;;;9.50;99.90;;;;;;6211352;28;20054;-81
2022/04/08 11:36:25;;;;;;;2.45;0.20;;;9.30;99.80;;;;;;6229946;28;20123;-80
2022/04/08 11:39:27;;;;;;;1.58;0.60;;;9.20;99.90;;;;;;6228397;28;20129;-80
2022/04/08 11:42:29;;;;;;;6.00;0.80;;;9.20;99.90;;;;;;6228448;28;20046;-79
2022/04/08 11:45:31;;;;;;;0.00;0.00;;;9.20;99.90;;;;;;6228395;28;20525;-80
2022/04/08 11:48:39;;;;;;;0.00;0.00;;;9.00;99.90;;;;;;6228023;28;20064;-78
2022/04/08 11:51:42;;;;;;;;;;;9.10;99.90;;;;;;6229616;28;20046;-79
2022/04/08 11:54:48;;;;;;;0.00;0.00;;;9.20;99.90;;;;;;6227822;28;19928;-79
2022/04/08 11:57:50;;;;;;;0.00;0.00;;;9.10;99.90;;;;;;6229013;28;20057;-80
2022/04/08 12:00:53;;;;;;;0.00;0.00;;;9.10;99.90;;;;;;6225562;28;20061;-79
2022/04/08 12:03:54;;;;;;;0.00;0.00;;;9.20;99.90;;;;;;6216428;28;20045;-80
2022/04/08 12:06:59;;;;;;;0.00;0.00;;;9.40;99.90;;;;;;6212937;28;20073;-79
2022/04/08 12:10:02;;;;;;;0.00;0.00;;;9.40;99.90;;;;;;6203633;28;20064;-80
2022/04/08 12:13:13;;;;;;;0.47;0.47;;;9.40;99.90;;;;;;6204044;28;20124;-80
2022/04/08 12:16:15;;;;;;;0.00;0.00;;;9.30;99.90;;;;;;6203985;28;20061;-80
2022/04/08 12:19:18;;;;;;;0.00;0.00;;;9.30;99.90;;;;;;6203219;28;20125;-80
2022/04/08 12:22:22;;;;;;;0.00;0.00;;;9.30;99.90;;;;;;6203747;28;20408;-80
2022/04/08 12:25:24;;;;;;;0.00;0.00;;;9.30;99.90;;;;;;6202755;28;20054;-80
2022/04/08 12:28:30;;;;;;;0.00;0.00;;;9.20;99.90;;;;;;6203510;28;20109;-80
2022/04/08 12:31:32;;;;;;;0.00;0.00;;;9.20;99.90;;;;;;6204933;28;20050;-80
2022/04/08 12:34:34;;;;;;;0.00;0.00;;;9.10;99.90;;;;;;6231188;28;20432;-79
2022/04/08 12:37:38;;;;;;;0.00;0.00;;;9.20;99.90;;;;;;6229780;28;20050;-82
2022/04/08 12:40:39;;;;;;;0.00;0.00;;;9.00;99.90;;;;;;6213900;28;20109;-80
2022/04/08 12:43:41;;;;;;;0.00;0.00;;;8.70;99.90;;;;;;6203360;28;20126;-80
2022/04/08 12:46:43;;;;;;;0.00;0.00;;;8.70;99.90;;;;;;6203982;28;20066;-80
2022/04/08 12:49:45;;;;;;;0.00;0.00;;;8.70;99.90;;;;;;6203707;28;20046;-80
2022/04/08 12:52:48;;;;;;;0.00;0.00;;;8.80;99.90;;;;;;6205413;28;20452;-81
2022/04/08 12:55:50;;;;;;;0.00;0.00;;;8.70;99.90;;;;;;6209449;28;20050;-79
2022/04/08 12:58:52;;;;;;;0.00;0.00;;;8.60;99.90;;;;;;6208479;28;20050;-81
2022/04/08 13:01:54;;;;;;;0.00;0.00;;;8.50;99.90;;;;;;6207291;28;20134;-80
2022/04/08 13:04:56;;;;;;;0.00;0.00;;;8.50;99.90;;;;;;6219065;28;20050;-80
2022/04/08 13:07:59;;;;;;;0.00;0.00;;;8.50;99.90;;;;;;6211599;28;20069;-81
2022/04/08 13:11:01;;;;;;;0.00;0.00;;;8.50;99.90;;;;;;6202682;28;20457;-79
2022/04/08 13:14:03;;;;;;;0.00;0.00;;;8.40;99.90;;;;;;6201566;28;20042;-78
2022/04/08 13:17:04;;;;;;;0.00;0.00;;;8.30;99.90;;;;;;6201687;28;20054;-80
2022/04/08 13:20:09;;;;;;;0.00;0.00;;;8.20;99.90;;;;;;6203044;28;20050;-81
2022/04/08 13:23:12;;;;;;;0.00;0.00;;;8.10;99.90;;;;;;6201564;28;20050;-81
2022/04/08 13:26:14;;;;;;;0.25;0.25;;;8.10;99.90;;;;;;6202629;28;20042;-83
2022/04/08 13:29:16;;;;;;;0.00;0.00;;;8.20;99.90;;;;;;6201284;28;20073;-78
2022/04/08 13:32:19;;;;;;;0.00;0.00;;;8.30;99.90;;;;;;6208995;28;20060;-80
2022/04/08 13:35:20;;;;;;;0.00;0.00;;;8.20;99.90;;;;;;6217614;28;20045;-81
2022/04/08 13:38:25;;;;;;;0.00;0.00;;;8.20;99.90;;;;;;6225679;28;20526;-80
2022/04/08 13:41:27;;;;;;;0.00;0.00;;;8.30;99.90;;;;;;6225246;28;20507;-80
2022/04/08 13:44:30;;;;;;;0.00;0.00;;;8.40;99.90;;;;;;6225860;28;20046;-80
2022/04/08 13:47:32;;;;;;;0.00;0.00;;;8.40;99.90;;;;;;6226357;28;20055;-80
2022/04/08 13:50:34;;;;;;;0.00;0.00;;;8.50;99.90;;;;;;6225436;28;20412;-80
2022/04/08 13:53:37;;;;;;;0.00;0.00;;;8.50;99.90;;;;;;6231573;28;20042;-80
2022/04/08 13:56:39;;;;;;;0.00;0.00;;;8.50;99.90;;;;;;6233552;28;20049;-80
2022/04/08 13:59:41;;;;;;;0.00;0.00;;;8.40;99.90;;;;;;6233906;28;20081;-80
2022/04/08 14:02:42;;;;;;;0.00;0.00;;;8.20;99.90;;;;;;6217746;28;20547;-80
2022/04/08 14:05:44;;;;;;;0.00;0.00;;;8.30;99.90;;;;;;6214712;28;20054;-80
2022/04/08 14:08:48;;;;;;;0.00;0.00;;;8.30;99.90;;;;;;6204392;28;20113;-80
2022/04/08 14:11:51;;;;;;;0.00;0.00;;;8.20;99.90;;;;;;6208782;28;20053;-80
2022/04/08 14:14:53;;;;;;;0.00;0.00;;;8.20;99.90;;;;;;6212362;28;20173;-80
2022/04/08 14:17:55;;;;;;;0.00;0.00;;;8.20;99.90;;;;;;6208335;28;20523;-80
2022/04/08 14:20:57;;;;;;;0.00;0.00;;;8.20;99.90;;;;;;6202502;28;20062;-80
2022/04/08 14:24:00;;;;;;;0.00;0.00;;;8.30;99.90;;;;;;6187156;28;20114;-80
2022/04/08 14:27:02;;;;;;;0.00;0.00;;;8.20;99.90;;;;;;6183880;28;20055;-80
2022/04/08 14:30:04;;;;;;;0.00;0.00;;;8.20;99.90;;;;;;6184788;28;20053;-79
2022/04/08 14:33:06;;;;;;;0.00;0.00;;;8.30;99.90;;;;;;6213374;28;20189;-79
2022/04/08 14:36:09;;;;;;;0.00;0.00;;;8.30;99.90;;;;;;6231261;28;20066;-80
2022/04/08 14:39:12;;;;;;;0.00;0.00;;;8.20;99.90;;;;;;6233716;28;20052;-80
2022/04/08 14:42:14;;;;;;;0.00;0.00;;;8.10;99.90;;;;;;6233732;28;20042;-79
2022/04/08 14:45:16;;;;;;;0.00;0.00;;;8.20;99.90;;;;;;6213327;28;20043;-80
2022/04/08 14:48:18;;;;;;;0.00;0.00;;;8.30;99.90;;;;;;6210039;28;20057;-79
2022/04/08 14:51:20;;;;;;;0.00;0.00;;;8.40;99.90;;;;;;6209457;28;20039;-79
2022/04/08 14:54:23;;;;;;;0.00;0.00;;;8.40;99.90;;;;;;6209121;28;20125;-80
2022/04/08 14:57:25;;;;;;;0.00;0.00;;;8.30;99.90;;;;;;6208631;28;20074;-80
2022/04/08 15:00:27;;;;;;;0.00;0.00;;;8.30;99.90;;;;;;6208757;28;20054;-81
2022/04/08 15:03:29;;;;;;;0.03;0.03;;;8.20;99.90;;;;;;6216131;28;20068;-79
2022/04/08 15:06:30;;;;;;;0.00;0.00;;;8.10;99.90;;;;;;6229949;28;20188;-79
2022/04/08 15:09:34;;;;;;;0.00;0.00;;;8.00;99.90;;;;;;6229444;28;20069;-80
2022/04/08 15:12:35;;;;;;;0.00;0.00;;;8.10;99.90;;;;;;6230969;28;20077;-81
2022/04/08 15:15:37;;;;;;;0.00;0.00;;;8.10;99.90;;;;;;6231051;28;20046;-80
2022/04/08 15:18:39;;;;;;;0.00;0.00;;;8.10;99.90;;;;;;6228388;28;20511;-80
2022/04/08 15:21:41;;;;;;;0.00;0.00;;;8.20;99.90;;;;;;6219221;28;20066;-80
2022/04/08 15:24:44;;;;;;;0.00;0.00;;;8.10;99.90;;;;;;6193447;28;20043;-79
2022/04/08 15:27:46;;;;;;;0.00;0.00;;;7.90;99.90;;;;;;6187497;28;20110;-82
2022/04/08 15:30:48;;;;;;;0.00;0.00;;;7.80;99.90;;;;;;6191517;28;20062;-80
2022/04/08 15:33:50;;;;;;;0.00;0.00;;;7.60;99.90;;;;;;6226682;28;20049;-80
2022/04/08 15:36:51;;;;;;;0.00;0.00;;;7.40;99.90;;;;;;6246965;28;20110;-80
2022/04/08 15:40:03;;;;;;;0.00;0.00;;;7.30;99.90;;;;;;6235146;28;20114;-80
2022/04/08 15:43:07;;;;;;;0.00;0.00;;;7.30;99.90;;;;;;6202151;28;20057;-79
2022/04/08 15:46:10;;;;;;;0.00;0.00;;;7.30;99.90;;;;;;6231312;28;20531;-82
2022/04/08 15:49:12;;;;;;;0.00;0.00;;;7.20;99.90;;;;;;6215172;28;20077;-79
2022/04/08 15:52:14;;;;;;;0.00;0.00;;;7.40;99.90;;;;;;6209402;28;20196;-80
2022/04/08 15:55:21;;;;;;;0.00;0.00;;;7.30;99.90;;;;;;6227001;28;20490;-79
2022/04/08 15:58:25;;;;;;;0.08;0.08;;;7.30;99.90;;;;;;6230044;28;20531;-79